L'Atalante — FNCM — position and weather

sailwx.info

Track history (hours):
 
Tides and Currents Weather Stations Pressure Air Temp Water Temp Dewpoint Dewpoint Depression Visibility Wind Speed Wind Dir Waves Ship Positions

Oceanographic research ship L'Atalante (France)

Detailed information on ship capabilities available from University of Delaware's Ocean Information Center and ARCUS's ALIAS (Arctic Logistics Information and Support) project.

Last reported at 2017-May-27 10:54 UTC. Time now 2017-May-27 17:34 UTC.
Position N 15°39' W 061°42'.

Length 85 m; beam 16 m.

Type: Other ship. MMSI: 227222000.

Date/timePositionNaut miles runAvg speedWind from/ knotsBaromVisibWave heightAir tempDewpointWater temp
2017-May-27 10:54N 15°39' W 061°42'1 0.1
2017-May-27 05:00N 15°40' W 061°41'10 2.0
2017-May-26 23:57N 15°49' W 061°43'26 9.7
2017-May-26 21:14N 16°13' W 061°32'1 0.0
2017-May-25 22:05N 16°14' W 061°32'0 2.7
2017-May-25 22:00N 16°14' W 061°32'4 6.3
2017-May-25 21:27N 16°10' W 061°31'5 6.3
2017-May-25 20:38N 16°05' W 061°30'1 5.1
2017-May-25 20:24N 16°04' W 061°30'68 4.5
2017-May-25 05:22N 16°17' W 062°39'40 4.4
2017-May-24 20:19N 16°15' W 061°58'3 8.5
2017-May-24 20:00N 16°16' W 061°55'5 9.0
2017-May-24 19:30N 16°19' W 061°52'7 9.8
2017-May-24 18:49N 16°23' W 061°58'4 9.8
2017-May-24 18:23N 16°26' W 062°02'4 9.7
2017-May-24 18:00N 16°28' W 062°05'5 9.7
2017-May-24 17:30N 16°30' W 062°09'5 9.5
2017-May-24 17:00N 16°33' W 062°13'5 9.2
2017-May-24 16:29N 16°35' W 062°18'5 8.6
2017-May-24 15:57N 16°37' W 062°22'4 9.3
2017-May-24 15:30N 16°40' W 062°25'5 9.5
2017-May-24 15:00N 16°42' W 062°29'20 1.9
2017-May-24 04:28N 16°27' W 062°43'0 0.5
2017-May-24 03:56N 16°27' W 062°43'4 6.9
2017-May-24 03:23N 16°28' W 062°39'11 7.3
2017-May-24 01:57N 16°30' W 062°28'2 5.1
2017-May-24 01:28N 16°31' W 062°26'3 6.2
2017-May-24 01:00N 16°32' W 062°23'3 5.3
2017-May-24 00:31N 16°33' W 062°21'0 0.2
2017-May-24 00:01N 16°33' W 062°20'4 7.5
2017-May-23 23:30N 16°34' W 062°17'4 7.0
2017-May-23 23:00N 16°35' W 062°13'3 5.3
2017-May-23 22:30N 16°35' W 062°10'1 2.4
2017-May-23 22:00N 16°36' W 062°09'4 7.4
2017-May-23 21:30N 16°37' W 062°06'2 4.8
2017-May-23 21:00N 16°37' W 062°03'1 2.8
2017-May-23 20:30N 16°38' W 062°02'3 7.0
2017-May-23 20:00N 16°39' W 061°58'1 2.4
2017-May-23 19:29N 16°39' W 061°57'3 5.6
2017-May-23 19:00N 16°40' W 061°54'3 6.2
2017-May-23 18:30N 16°40' W 061°51'1 2.7
2017-May-23 18:00N 16°41' W 061°50'3 6.0
2017-May-23 17:30N 16°42' W 061°47'3 5.4
2017-May-23 17:00N 16°43' W 061°44'1 2.0
2017-May-23 16:30N 16°43' W 061°43'3 6.5
2017-May-23 16:00N 16°44' W 061°40'1 2.7
2017-May-23 15:30N 16°44' W 061°39'3 6.9
2017-May-23 15:00N 16°45' W 061°35'3 6.3
2017-May-23 14:31N 16°46' W 061°32'5 5.3
2017-May-23 13:30N 16°48' W 061°27'3 5.2
2017-May-23 13:00N 16°48' W 061°24'3 6.2
2017-May-23 12:30N 16°49' W 061°21'0 0.9
2017-May-23 12:01N 16°49' W 061°21'2 3.5
2017-May-23 11:30N 16°49' W 061°19'3 5.3
2017-May-23 11:00N 16°50' W 061°17'3 6.1
2017-May-23 10:31N 16°51' W 061°14'0 0.5
2017-May-23 10:00N 16°51' W 061°14'0 0.1
2017-May-23 09:29N 16°51' W 061°14'2 4.2
2017-May-23 09:00N 16°52' W 061°12'2 2.8
2017-May-23 08:24N 16°52' W 061°10'3 8.5
2017-May-23 08:01N 16°53' W 061°07'1 1.4
2017-May-23 07:30N 16°53' W 061°06'4 0.2
2017-May-22 10:59N 16°52' W 061°10'3 5.2
2017-May-22 10:30N 16°51' W 061°12'3 5.1
2017-May-22 09:53N 16°51' W 061°15'2 5.0
2017-May-22 09:30N 16°50' W 061°17'2 4.3
2017-May-22 09:00N 16°50' W 061°19'2 4.3
2017-May-22 08:30N 16°49' W 061°22'2 4.2
2017-May-22 08:00N 16°48' W 061°23'2 4.1
2017-May-22 07:30N 16°48' W 061°26'2 4.1
2017-May-22 07:00N 16°47' W 061°28'2 4.0
2017-May-22 06:30N 16°47' W 061°30'2 4.5
2017-May-22 06:00N 16°46' W 061°32'3 5.0
2017-May-22 05:30N 16°45' W 061°34'2 4.9
2017-May-22 05:00N 16°45' W 061°37'2 4.6
2017-May-22 04:30N 16°44' W 061°39'2 4.8
2017-May-22 04:00N 16°43' W 061°42'2 4.9
2017-May-22 03:30N 16°43' W 061°44'3 5.1
2017-May-22 03:00N 16°42' W 061°47'3 5.2
2017-May-22 02:30N 16°41' W 061°49'3 5.1
2017-May-22 02:00N 16°40' W 061°52'3 5.2
2017-May-22 01:30N 16°40' W 061°54'3 5.0
2017-May-22 01:00N 16°39' W 061°57'3 5.3
2017-May-22 00:30N 16°38' W 061°59'3 5.6
2017-May-22 00:00N 16°38' W 062°02'3 5.5
2017-May-21 23:30N 16°37' W 062°05'3 5.4
2017-May-21 23:00N 16°36' W 062°08'3 5.4
2017-May-21 22:30N 16°35' W 062°10'3 5.3
2017-May-21 22:00N 16°35' W 062°13'3 5.2
2017-May-21 21:30N 16°34' W 062°16'3 5.1
2017-May-21 21:00N 16°33' W 062°18'3 5.1
2017-May-21 20:30N 16°32' W 062°21'3 5.1
2017-May-21 20:00N 16°32' W 062°23'2 4.9
2017-May-21 19:30N 16°31' W 062°26'3 4.8
2017-May-21 18:59N 16°30' W 062°28'3 4.7
2017-May-21 18:22N 16°30' W 062°31'2 4.7
2017-May-21 18:00N 16°29' W 062°33'5 4.7
2017-May-21 16:55N 16°28' W 062°38'2 4.7
2017-May-21 16:30N 16°27' W 062°40'3 4.8
2017-May-21 15:58N 16°26' W 062°43'2 0.1
2017-May-21 02:08N 16°26' W 062°44'2 9.7
2017-May-21 01:58N 16°26' W 062°43'4 8.0
2017-May-21 01:30N 16°27' W 062°39'11 8.1
2017-May-21 00:09N 16°31' W 062°28'1 5.7
2017-May-20 23:57N 16°31' W 062°27'4 7.8
2017-May-20 23:30N 16°32' W 062°23'4 8.8
2017-May-20 23:00N 16°33' W 062°19'4 8.7
2017-May-20 22:30N 16°34' W 062°14'4 8.1
2017-May-20 22:00N 16°35' W 062°10'4 8.1
2017-May-20 21:30N 16°36' W 062°06'4 8.6
2017-May-20 21:00N 16°38' W 062°02'4 7.3
2017-May-20 20:31N 16°39' W 061°58'4 7.6
2017-May-20 20:01N 16°40' W 061°54'3 7.0
2017-May-20 19:30N 16°41' W 061°51'4 7.5
2017-May-20 19:00N 16°42' W 061°47'4 7.6
2017-May-20 18:30N 16°43' W 061°43'3 6.7
2017-May-20 18:00N 16°44' W 061°40'4 7.3
2017-May-20 17:30N 16°45' W 061°36'4 7.2
2017-May-20 17:00N 16°46' W 061°33'4 7.1
2017-May-20 16:30N 16°47' W 061°29'3 5.4
2017-May-20 16:00N 16°47' W 061°27'4 7.9
2017-May-20 15:30N 16°49' W 061°23'4 7.8
2017-May-20 15:00N 16°50' W 061°19'4 7.9
2017-May-20 14:30N 16°51' W 061°15'8 7.8
2017-May-20 13:27N 16°53' W 061°06'  
Track history (hours):
 
Tides and Currents Weather Stations Pressure Air Temp Water Temp Dewpoint Dewpoint Depression Visibility Wind Speed Wind Dir Waves Ship Positions

Oceanographic research ship L'Atalante (France)

Detailed information on ship capabilities available from University of Delaware's Ocean Information Center and ARCUS's ALIAS (Arctic Logistics Information and Support) project.

Last reported at 2017-May-27 10:54 UTC. Time now 2017-May-27 17:34 UTC.
Position N 15°39' W 061°42'.

Length 85 m; beam 16 m.

Type: Other ship. MMSI: 227222000.

Date/timePositionNaut miles runAvg speedWind from/ knotsBaromVisibWave heightAir tempDewpointWater temp
2017-May-27 10:54N 15°39' W 061°42'1 0.1
2017-May-27 05:00N 15°40' W 061°41'10 2.0
2017-May-26 23:57N 15°49' W 061°43'26 9.7
2017-May-26 21:14N 16°13' W 061°32'1 0.0
2017-May-25 22:05N 16°14' W 061°32'0 2.7
2017-May-25 22:00N 16°14' W 061°32'4 6.3
2017-May-25 21:27N 16°10' W 061°31'5 6.3
2017-May-25 20:38N 16°05' W 061°30'1 5.1
2017-May-25 20:24N 16°04' W 061°30'68 4.5
2017-May-25 05:22N 16°17' W 062°39'40 4.4
2017-May-24 20:19N 16°15' W 061°58'3 8.5
2017-May-24 20:00N 16°16' W 061°55'5 9.0
2017-May-24 19:30N 16°19' W 061°52'7 9.8
2017-May-24 18:49N 16°23' W 061°58'4 9.8
2017-May-24 18:23N 16°26' W 062°02'4 9.7
2017-May-24 18:00N 16°28' W 062°05'5 9.7
2017-May-24 17:30N 16°30' W 062°09'5 9.5
2017-May-24 17:00N 16°33' W 062°13'5 9.2
2017-May-24 16:29N 16°35' W 062°18'5 8.6
2017-May-24 15:57N 16°37' W 062°22'4 9.3
2017-May-24 15:30N 16°40' W 062°25'5 9.5
2017-May-24 15:00N 16°42' W 062°29'20 1.9
2017-May-24 04:28N 16°27' W 062°43'0 0.5
2017-May-24 03:56N 16°27' W 062°43'4 6.9
2017-May-24 03:23N 16°28' W 062°39'11 7.3
2017-May-24 01:57N 16°30' W 062°28'2 5.1
2017-May-24 01:28N 16°31' W 062°26'3 6.2
2017-May-24 01:00N 16°32' W 062°23'3 5.3
2017-May-24 00:31N 16°33' W 062°21'0 0.2
2017-May-24 00:01N 16°33' W 062°20'4 7.5
2017-May-23 23:30N 16°34' W 062°17'4 7.0
2017-May-23 23:00N 16°35' W 062°13'3 5.3
2017-May-23 22:30N 16°35' W 062°10'1 2.4
2017-May-23 22:00N 16°36' W 062°09'4 7.4
2017-May-23 21:30N 16°37' W 062°06'2 4.8
2017-May-23 21:00N 16°37' W 062°03'1 2.8
2017-May-23 20:30N 16°38' W 062°02'3 7.0
2017-May-23 20:00N 16°39' W 061°58'1 2.4
2017-May-23 19:29N 16°39' W 061°57'3 5.6
2017-May-23 19:00N 16°40' W 061°54'3 6.2
2017-May-23 18:30N 16°40' W 061°51'1 2.7
2017-May-23 18:00N 16°41' W 061°50'3 6.0
2017-May-23 17:30N 16°42' W 061°47'3 5.4
2017-May-23 17:00N 16°43' W 061°44'1 2.0
2017-May-23 16:30N 16°43' W 061°43'3 6.5
2017-May-23 16:00N 16°44' W 061°40'1 2.7
2017-May-23 15:30N 16°44' W 061°39'3 6.9
2017-May-23 15:00N 16°45' W 061°35'3 6.3
2017-May-23 14:31N 16°46' W 061°32'5 5.3
2017-May-23 13:30N 16°48' W 061°27'3 5.2
2017-May-23 13:00N 16°48' W 061°24'3 6.2
2017-May-23 12:30N 16°49' W 061°21'0 0.9
2017-May-23 12:01N 16°49' W 061°21'2 3.5
2017-May-23 11:30N 16°49' W 061°19'3 5.3
2017-May-23 11:00N 16°50' W 061°17'3 6.1
2017-May-23 10:31N 16°51' W 061°14'0 0.5
2017-May-23 10:00N 16°51' W 061°14'0 0.1
2017-May-23 09:29N 16°51' W 061°14'2 4.2
2017-May-23 09:00N 16°52' W 061°12'2 2.8
2017-May-23 08:24N 16°52' W 061°10'3 8.5
2017-May-23 08:01N 16°53' W 061°07'1 1.4
2017-May-23 07:30N 16°53' W 061°06'4 0.2
2017-May-22 10:59N 16°52' W 061°10'3 5.2
2017-May-22 10:30N 16°51' W 061°12'3 5.1
2017-May-22 09:53N 16°51' W 061°15'2 5.0
2017-May-22 09:30N 16°50' W 061°17'2 4.3
2017-May-22 09:00N 16°50' W 061°19'2 4.3
2017-May-22 08:30N 16°49' W 061°22'2 4.2
2017-May-22 08:00N 16°48' W 061°23'2 4.1
2017-May-22 07:30N 16°48' W 061°26'2 4.1
2017-May-22 07:00N 16°47' W 061°28'2 4.0
2017-May-22 06:30N 16°47' W 061°30'2 4.5
2017-May-22 06:00N 16°46' W 061°32'3 5.0
2017-May-22 05:30N 16°45' W 061°34'2 4.9
2017-May-22 05:00N 16°45' W 061°37'2 4.6
2017-May-22 04:30N 16°44' W 061°39'2 4.8
2017-May-22 04:00N 16°43' W 061°42'2 4.9
2017-May-22 03:30N 16°43' W 061°44'3 5.1
2017-May-22 03:00N 16°42' W 061°47'3 5.2
2017-May-22 02:30N 16°41' W 061°49'3 5.1
2017-May-22 02:00N 16°40' W 061°52'3 5.2
2017-May-22 01:30N 16°40' W 061°54'3 5.0
2017-May-22 01:00N 16°39' W 061°57'3 5.3
2017-May-22 00:30N 16°38' W 061°59'3 5.6
2017-May-22 00:00N 16°38' W 062°02'3 5.5
2017-May-21 23:30N 16°37' W 062°05'3 5.4
2017-May-21 23:00N 16°36' W 062°08'3 5.4
2017-May-21 22:30N 16°35' W 062°10'3 5.3
2017-May-21 22:00N 16°35' W 062°13'3 5.2
2017-May-21 21:30N 16°34' W 062°16'3 5.1
2017-May-21 21:00N 16°33' W 062°18'3 5.1
2017-May-21 20:30N 16°32' W 062°21'3 5.1
2017-May-21 20:00N 16°32' W 062°23'2 4.9
2017-May-21 19:30N 16°31' W 062°26'3 4.8
2017-May-21 18:59N 16°30' W 062°28'3 4.7
2017-May-21 18:22N 16°30' W 062°31'2 4.7
2017-May-21 18:00N 16°29' W 062°33'5 4.7
2017-May-21 16:55N 16°28' W 062°38'2 4.7
2017-May-21 16:30N 16°27' W 062°40'3 4.8
2017-May-21 15:58N 16°26' W 062°43'2 0.1
2017-May-21 02:08N 16°26' W 062°44'2 9.7
2017-May-21 01:58N 16°26' W 062°43'4 8.0
2017-May-21 01:30N 16°27' W 062°39'11 8.1
2017-May-21 00:09N 16°31' W 062°28'1 5.7
2017-May-20 23:57N 16°31' W 062°27'4 7.8
2017-May-20 23:30N 16°32' W 062°23'4 8.8
2017-May-20 23:00N 16°33' W 062°19'4 8.7
2017-May-20 22:30N 16°34' W 062°14'4 8.1
2017-May-20 22:00N 16°35' W 062°10'4 8.1
2017-May-20 21:30N 16°36' W 062°06'4 8.6
2017-May-20 21:00N 16°38' W 062°02'4 7.3
2017-May-20 20:31N 16°39' W 061°58'4 7.6
2017-May-20 20:01N 16°40' W 061°54'3 7.0
2017-May-20 19:30N 16°41' W 061°51'4 7.5
2017-May-20 19:00N 16°42' W 061°47'4 7.6
2017-May-20 18:30N 16°43' W 061°43'3 6.7
2017-May-20 18:00N 16°44' W 061°40'4 7.3
2017-May-20 17:30N 16°45' W 061°36'4 7.2
2017-May-20 17:00N 16°46' W 061°33'4 7.1
2017-May-20 16:30N 16°47' W 061°29'3 5.4
2017-May-20 16:00N 16°47' W 061°27'4 7.9
2017-May-20 15:30N 16°49' W 061°23'4 7.8
2017-May-20 15:00N 16°50' W 061°19'4 7.9
2017-May-20 14:30N 16°51' W 061°15'8 7.8
2017-May-20 13:27N 16°53' W 061°06'  

Dump ship's entire track history